Colinas de Hatillo, Puerto Rico
Current Conditions -  °F | °C
As of 4:50 AM on Monday 24 Nov 2014 (Local Time) from TJBQ Reporting Station
Broken Clouds Broken Clouds  
Wind Chill: 75°   Ceiling: 8500
Heat Index: 75°   Visibility: 10mi
Dew Point: 72°   Wind: 8mph
Humidity: 89%   Direction: 110°ESE
Pressure: 30"   Gusts: NA
Location:  18.4851°N, 66.8257°W
Report Text: TJBQ 240850Z 11007KT 10SM SCT018 BKN085 24/22 A3000 RMK TWR CLOSED UNTIL 1100Z
Loading
Personal Weather Stations






























Interactive Weather Map New forecast layout! Learn more

10-Day Weather Forecast

Advertisements
Track Severe Weather on mobile